Time;durP1;ratioP1;P1;durP2;ratioP2;P2;SDS_P1;SDS_P2;PMS_P1;PMS_P2;Temp;Humidity;BMP_temperature;BMP_pressure;BME280_temperature;BME280_humidity;BME280_pressure;Samples;Min_cycle;Max_cycle;Signal;HPM_P1;HPM_P2
2022/02/04 00:24:30;;;;;;;22.23;14.05;;;;;;;;;;6190142;23;20012;-85
2022/02/04 00:27:03;;;;;;;21.92;14.13;;;;;;;;;;6186578;23;20390;-85
2022/02/04 00:29:35;;;;;;;23.05;13.93;;;;;;;;;;6186644;23;20080;-85
2022/02/04 00:32:06;;;;;;;21.42;13.77;;;;;;;;;;6186604;23;20063;-86
2022/02/04 00:34:39;;;;;;;21.02;13.90;;;;;;;;;;6185004;23;20012;-85
2022/02/04 00:37:19;;;;;;;23.05;14.80;;;;;;;;;;6186448;23;20009;-85
2022/02/04 00:39:53;;;;;;;24.17;15.07;;;;;;;;;;6186898;23;20009;-85
2022/02/04 00:42:18;;;;;;;21.83;15.88;;;;;;;;;;6186421;23;20005;-85
2022/02/04 00:44:44;;;;;;;23.48;14.65;;;;;;;;;;6185083;23;20005;-84
2022/02/04 00:47:20;;;;;;;21.25;14.10;;;;;;;;;;6186604;23;20009;-84
2022/02/04 00:50:00;;;;;;;21.70;13.88;;;;;;;;;;6184770;23;20013;-85
2022/02/04 00:52:37;;;;;;;21.95;14.45;;;;;;;;;;6186442;23;20008;-85
2022/02/04 01:27:48;;;;;;;19.88;13.38;;;;;;;;;;6185774;23;20019;-85
2022/02/04 01:30:19;;;;;;;22.83;12.95;;;;;;;;;;6186107;23;20001;-85
2022/02/04 01:32:45;;;;;;;23.48;13.60;;;;;;;;;;6186299;23;20016;-85
2022/02/04 01:35:11;;;;;;;21.23;13.38;;;;;;;;;;6186077;23;20005;-84
2022/02/04 01:37:36;;;;;;;24.50;13.85;;;;;;;;;;6186036;23;20417;-85
2022/02/04 01:40:02;;;;;;;23.40;14.98;;;;;;;;;;6184397;23;20491;-85
2022/02/04 01:42:28;;;;;;;20.55;13.90;;;;;;;;;;6186019;23;20008;-85
2022/02/04 01:44:53;;;;;;;23.83;14.38;;;;;;;;;;6185941;23;20014;-85
2022/02/04 01:47:19;;;;;;;20.80;14.40;;;;;;;;;;6185881;23;20009;-85
2022/02/04 01:49:44;;;;;;;23.63;15.00;;;;;;;;;;6185998;23;20393;-85
2022/02/04 01:52:10;;;;;;;24.50;14.35;;;;;;;;;;6186030;23;20009;-85
2022/02/04 01:54:36;;;;;;;23.23;15.10;;;;;;;;;;6186008;23;20008;-85
2022/02/04 01:57:01;;;;;;;25.08;14.68;;;;;;;;;;6185824;23;20305;-85
2022/02/04 01:59:27;;;;;;;26.10;14.90;;;;;;;;;;6185961;23;20008;-85
2022/02/04 02:01:52;;;;;;;22.42;14.23;;;;;;;;;;6185885;23;20005;-85
2022/02/04 02:04:18;;;;;;;20.27;14.02;;;;;;;;;;6185843;23;20480;-85
2022/02/04 02:06:56;;;;;;;18.98;12.95;;;;;;;;;;6184179;23;20009;-85
2022/02/04 02:10:11;;;;;;;21.98;13.00;;;;;;;;;;6185956;23;20080;-85
2022/02/04 02:12:09;;;;;;;19.05;11.85;;;;;;;;;;6164805;23;20001;-85
2022/02/04 02:14:37;;;;;;;19.23;12.15;;;;;;;;;;6185870;23;20001;-85
2022/02/04 02:47:06;;;;;;;19.75;11.93;;;;;;;;;;6195463;23;20009;-85
2022/02/04 02:52:40;;;;;;;20.17;12.52;;;;;;;;;;6187665;23;20055;-85
2022/02/04 03:00:09;;;;;;;18.45;12.32;;;;;;;;;;6191576;23;20523;-85
2022/02/04 03:02:34;;;;;;;21.15;12.82;;;;;;;;;;6187443;23;20013;-85
2022/02/04 03:05:00;;;;;;;19.08;12.38;;;;;;;;;;6187340;23;20363;-85
2022/02/04 03:07:25;;;;;;;22.35;13.82;;;;;;;;;;6187096;23;20019;-85
2022/02/04 03:09:51;;;;;;;19.27;13.23;;;;;;;;;;6187347;23;20001;-85
2022/02/04 03:12:16;;;;;;;24.20;13.85;;;;;;;;;;6187262;23;20080;-85
2022/02/04 03:14:42;;;;;;;26.48;13.60;;;;;;;;;;6185480;23;20009;-85
2022/02/04 03:17:10;;;;;;;22.45;13.80;;;;;;;;;;6187243;23;20001;-85
2022/02/04 03:19:37;;;;;;;21.15;14.00;;;;;;;;;;6185422;23;20019;-85
2022/02/04 03:22:08;;;;;;;22.95;14.00;;;;;;;;;;6185645;23;20009;-85
2022/02/04 03:24:34;;;;;;;24.58;13.90;;;;;;;;;;6185369;23;20432;-85
2022/02/04 03:27:05;;;;;;;22.23;13.65;;;;;;;;;;6186784;23;20016;-85
2022/02/04 03:29:40;;;;;;;21.70;13.80;;;;;;;;;;6187048;23;19997;-85
2022/02/04 03:32:09;;;;;;;21.52;13.63;;;;;;;;;;6185607;23;20016;-85
2022/02/04 03:34:35;;;;;;;24.58;14.63;;;;;;;;;;6187025;23;20012;-85
2022/02/04 03:37:00;;;;;;;19.95;13.40;;;;;;;;;;6185442;23;20009;-85
2022/02/04 03:39:26;;;;;;;20.38;13.15;;;;;;;;;;6186810;23;20036;-85
2022/02/04 03:41:51;;;;;;;20.08;13.85;;;;;;;;;;6186901;23;20036;-85
2022/02/04 03:44:17;;;;;;;23.55;14.90;;;;;;;;;;6186995;23;20044;-85
2022/02/04 03:46:42;;;;;;;23.20;15.10;;;;;;;;;;6186998;23;20009;-85
2022/02/04 03:49:08;;;;;;;22.63;14.07;;;;;;;;;;6186891;23;20486;-85
2022/02/04 03:51:33;;;;;;;25.58;14.98;;;;;;;;;;6185177;23;20009;-85
2022/02/04 03:53:59;;;;;;;25.35;15.13;;;;;;;;;;6186847;23;20463;-85
2022/02/04 03:56:24;;;;;;;19.08;13.52;;;;;;;;;;6185306;23;20013;-85
2022/02/04 03:58:50;;;;;;;19.88;14.32;;;;;;;;;;6187036;23;20385;-85
2022/02/04 04:01:15;;;;;;;22.00;14.23;;;;;;;;;;6185222;23;20415;-85
2022/02/04 04:03:41;;;;;;;23.65;14.45;;;;;;;;;;6186732;23;20084;-85
2022/02/04 04:06:07;;;;;;;23.08;14.73;;;;;;;;;;6186863;23;20008;-85
2022/02/04 04:08:32;;;;;;;24.25;14.88;;;;;;;;;;6186672;23;20476;-85
2022/02/04 04:10:58;;;;;;;24.35;14.65;;;;;;;;;;6186661;23;20028;-85
2022/02/04 04:13:23;;;;;;;25.50;14.20;;;;;;;;;;6186857;23;20005;-85
2022/02/04 04:15:49;;;;;;;22.77;13.65;;;;;;;;;;6185139;23;20359;-85
2022/02/04 04:18:15;;;;;;;23.42;14.07;;;;;;;;;;6186468;23;20088;-85
2022/02/04 04:20:44;;;;;;;24.35;14.25;;;;;;;;;;6186411;23;20013;-85
2022/02/04 04:23:11;;;;;;;20.30;13.93;;;;;;;;;;6186503;23;19997;-85
2022/02/04 04:25:36;;;;;;;23.08;13.60;;;;;;;;;;6186708;23;20020;-85
2022/02/04 04:28:02;;;;;;;25.58;14.65;;;;;;;;;;6186664;23;20005;-85
2022/02/04 04:30:27;;;;;;;20.50;14.00;;;;;;;;;;6185065;23;20001;-85
2022/02/04 04:32:55;;;;;;;20.13;12.88;;;;;;;;;;6186653;23;20001;-85
2022/02/04 04:35:24;;;;;;;22.20;13.00;;;;;;;;;;6186472;23;20005;-85
2022/02/04 04:40:35;;;;;;;;;;;;;;;;;;6196913;23;20005;-85
2022/02/04 05:29:11;;;;;;;21.38;12.63;;;;;;;;;;6186016;23;20016;-85
2022/02/04 05:31:37;;;;;;;17.65;11.88;;;;;;;;;;6185977;23;20032;-85
2022/02/04 05:34:03;;;;;;;20.92;12.20;;;;;;;;;;6187281;23;20425;-84
2022/02/04 05:36:33;;;;;;;16.83;11.57;;;;;;;;;;6187267;23;20487;-84
2022/02/04 05:38:58;;;;;;;19.50;11.15;;;;;;;;;;6184978;23;20028;-84
2022/02/04 05:41:29;;;;;;;19.75;11.68;;;;;;;;;;6185610;23;20001;-84
2022/02/04 05:43:57;;;;;;;19.83;12.80;;;;;;;;;;6188184;23;20309;-84
2022/02/04 05:46:30;;;;;;;18.77;12.70;;;;;;;;;;6185184;23;20008;-85
2022/02/04 05:48:58;;;;;;;17.48;12.10;;;;;;;;;;6185915;23;19997;-84
2022/02/04 05:51:49;;;;;;;19.23;12.15;;;;;;;;;;6186266;23;20021;-85
2022/02/04 06:02:09;;;;;;;22.15;12.07;;;;;;;;;;6187967;23;20429;-85
2022/02/04 06:04:57;;;;;;;19.67;12.35;;;;;;;;;;6185728;23;20051;-86
2022/02/04 06:23:32;;;;;;;20.83;12.90;;;;;;;;;;6187807;23;20092;-84
2022/02/04 06:25:59;;;;;;;22.08;11.70;;;;;;;;;;6185499;23;20033;-83
2022/02/04 06:28:25;;;;;;;21.38;12.27;;;;;;;;;;6186732;23;20005;-86
2022/02/04 06:30:51;;;;;;;19.38;12.18;;;;;;;;;;6186031;23;20011;-81
2022/02/04 06:33:16;;;;;;;19.65;12.65;;;;;;;;;;6187636;23;20088;-82
2022/02/04 06:35:42;;;;;;;18.52;12.10;;;;;;;;;;6187555;23;20051;-82
2022/02/04 06:38:08;;;;;;;18.08;11.93;;;;;;;;;;6187758;23;20001;-81
2022/02/04 06:40:33;;;;;;;16.60;11.07;;;;;;;;;;6187451;23;20005;-81
2022/02/04 06:42:59;;;;;;;20.80;12.93;;;;;;;;;;6187270;23;20375;-81
2022/02/04 06:45:24;;;;;;;16.58;11.50;;;;;;;;;;6187545;23;20001;-82
2022/02/04 06:47:50;;;;;;;20.95;11.65;;;;;;;;;;6187489;23;20005;-81
2022/02/04 06:50:16;;;;;;;19.02;11.25;;;;;;;;;;6187509;23;20055;-82
2022/02/04 06:52:43;;;;;;;17.75;11.40;;;;;;;;;;6187095;23;20001;-82
2022/02/04 06:55:10;;;;;;;18.77;11.43;;;;;;;;;;6187368;23;20413;-82
2022/02/04 06:57:36;;;;;;;17.40;11.13;;;;;;;;;;6187159;23;20099;-82
2022/02/04 07:00:02;;;;;;;18.58;12.00;;;;;;;;;;6187541;23;20001;-82
2022/02/04 07:02:28;;;;;;;21.23;12.15;;;;;;;;;;6187215;23;20008;-82
2022/02/04 07:04:53;;;;;;;22.35;12.95;;;;;;;;;;6187271;23;20005;-82
2022/02/04 07:07:20;;;;;;;19.30;12.32;;;;;;;;;;6185529;23;20041;-81
2022/02/04 07:12:34;;;;;;;20.52;11.93;;;;;;;;;;6197706;23;20020;-81
2022/02/04 07:17:43;;;;;;;20.35;13.20;;;;;;;;;;6191239;23;20040;-83
2022/02/04 07:20:09;;;;;;;21.23;13.35;;;;;;;;;;6186778;23;20035;-83
2022/02/04 07:22:34;;;;;;;19.45;12.50;;;;;;;;;;6187107;23;20429;-82
2022/02/04 07:25:05;;;;;;;20.48;12.90;;;;;;;;;;6187116;23;20053;-82
2022/02/04 07:27:34;;;;;;;20.08;13.15;;;;;;;;;;6186884;23;20044;-82
2022/02/04 07:30:00;;;;;;;20.42;12.73;;;;;;;;;;6187071;23;20008;-82
2022/02/04 07:42:55;;;;;;;22.52;14.35;;;;;;;;;;6187089;23;20016;-84
2022/02/04 07:45:21;;;;;;;20.50;13.38;;;;;;;;;;6186812;23;20001;-84
2022/02/04 07:47:51;;;;;;;21.75;13.52;;;;;;;;;;6185221;23;20016;-84
2022/02/04 07:50:21;;;;;;;20.77;13.75;;;;;;;;;;6186986;23;20324;-84
2022/02/04 07:52:51;;;;;;;21.65;13.48;;;;;;;;;;6186990;23;20081;-84
2022/02/04 07:55:16;;;;;;;22.02;13.55;;;;;;;;;;6185120;23;20009;-84
2022/02/04 07:57:46;;;;;;;23.73;13.77;;;;;;;;;;6186683;23;20025;-84
2022/02/04 08:00:15;;;;;;;;;;;;;;;;;;6187304;23;20328;-83
2022/02/04 08:02:45;;;;;;;21.55;13.30;;;;;;;;;;6187009;23;19932;-82
2022/02/04 08:05:15;;;;;;;24.08;14.32;;;;;;;;;;6186758;23;20005;-83
2022/02/04 08:07:52;;;;;;;21.92;14.27;;;;;;;;;;6186491;23;20009;-84
2022/02/04 08:10:30;;;;;;;21.65;13.20;;;;;;;;;;6186704;23;20032;-83
2022/02/04 08:24:31;;;;;;;23.25;14.15;;;;;;;;;;6196484;23;20017;-83
2022/02/04 08:38:02;;;;;;;20.88;12.00;;;;;;;;;;6192735;23;20028;-83
2022/02/04 08:56:00;;;;;;;19.63;12.95;;;;;;;;;;6186344;23;20403;-82
2022/02/04 09:03:51;;;;;;;21.20;13.73;;;;;;;;;;6196676;23;20124;-82
2022/02/04 09:06:25;;;;;;;20.80;13.23;;;;;;;;;;6185995;23;20494;-82
2022/02/04 09:08:57;;;;;;;20.77;14.70;;;;;;;;;;6185973;23;20001;-81
2022/02/04 09:16:56;;;;;;;21.05;14.23;;;;;;;;;;6186078;23;20012;-84
2022/02/04 09:19:24;;;;;;;22.40;13.73;;;;;;;;;;6186137;23;20005;-82
2022/02/04 09:22:04;;;;;;;19.08;14.20;;;;;;;;;;6185966;23;20060;-83
2022/02/04 09:24:30;;;;;;;22.05;13.65;;;;;;;;;;6186203;23;20001;-83
2022/02/04 09:26:55;;;;;;;21.25;13.10;;;;;;;;;;6185921;23;20060;-82
2022/02/04 09:29:21;;;;;;;20.08;13.60;;;;;;;;;;6186142;23;20076;-83
2022/02/04 09:31:47;;;;;;;19.17;13.02;;;;;;;;;;6186003;23;20317;-83
2022/02/04 09:34:12;;;;;;;21.98;13.93;;;;;;;;;;6186210;23;20001;-85
2022/02/04 09:36:38;;;;;;;19.20;12.48;;;;;;;;;;6186248;23;20005;-85
2022/02/04 09:39:08;;;;;;;19.98;12.50;;;;;;;;;;6186311;23;20056;-86
2022/02/04 09:41:35;;;;;;;17.70;12.27;;;;;;;;;;6186129;23;20008;-85
2022/02/04 09:44:01;;;;;;;16.60;12.38;;;;;;;;;;6187877;23;20008;-84
2022/02/04 09:46:33;;;;;;;21.73;13.82;;;;;;;;;;6186306;23;20028;-84
2022/02/04 09:48:59;;;;;;;17.58;12.98;;;;;;;;;;6186754;23;20332;-89
2022/02/04 09:51:35;;;;;;;21.17;13.75;;;;;;;;;;6186628;23;20001;-90
2022/02/04 10:18:51;;;;;;;17.15;12.68;;;;;;;;;;6069640;23;20014;-87
2022/02/04 10:21:17;;;;;;;16.75;11.98;;;;;;;;;;6068186;23;20034;-88
2022/02/04 10:23:47;;;;;;;16.08;12.38;;;;;;;;;;6068037;23;20006;-87
2022/02/04 10:26:13;;;;;;;15.68;12.13;;;;;;;;;;6067778;23;20003;-87
2022/02/04 10:28:39;;;;;;;18.88;12.23;;;;;;;;;;6067988;23;20118;-88
2022/02/04 10:31:25;;;;;;;12.88;11.27;;;;;;;;;;6068378;23;20027;-90
2022/02/04 10:34:18;;;;;;;17.13;12.63;;;;;;;;;;6068902;23;20017;-91
2022/02/04 10:36:59;;;;;;;14.18;11.65;;;;;;;;;;6044040;23;20002;-91
2022/02/04 10:39:42;;;;;;;13.77;11.30;;;;;;;;;;6043887;23;20451;-90
2022/02/04 10:47:43;;;;;;;14.90;11.82;;;;;;;;;;6068046;23;20069;-91
2022/02/04 11:03:27;;;;;;;12.55;10.68;;;;;;;;;;6189366;23;20024;-84
2022/02/04 11:06:05;;;;;;;15.65;13.10;;;;;;;;;;6187469;23;20037;-86
2022/02/04 11:36:39;;;;;;;15.88;12.02;;;;;;;;;;6194569;23;20020;-86
2022/02/04 11:56:56;;;;;;;14.95;12.52;;;;;;;;;;6187730;23;20013;-87
2022/02/04 11:59:35;;;;;;;17.17;12.40;;;;;;;;;;6186850;23;20081;-87
2022/02/04 12:02:01;;;;;;;15.48;12.80;;;;;;;;;;6185295;23;20037;-87
2022/02/04 12:04:26;;;;;;;20.17;14.80;;;;;;;;;;6185562;23;20459;-87
2022/02/04 12:06:54;;;;;;;19.13;14.13;;;;;;;;;;6184369;23;20013;-87
2022/02/04 12:09:35;;;;;;;17.27;13.68;;;;;;;;;;6184994;23;20326;-88
2022/02/04 12:12:01;;;;;;;18.98;14.40;;;;;;;;;;6185074;23;20356;-87
2022/02/04 12:14:31;;;;;;;18.80;14.63;;;;;;;;;;6185044;23;20853;-88
2022/02/04 12:17:11;;;;;;;20.20;14.68;;;;;;;;;;6185829;23;20429;-88
2022/02/04 12:19:37;;;;;;;19.52;14.55;;;;;;;;;;6185562;23;20016;-87
2022/02/04 12:22:03;;;;;;;23.55;15.00;;;;;;;;;;6185843;23;20020;-87
2022/02/04 12:24:34;;;;;;;19.58;15.50;;;;;;;;;;6189025;23;20001;-88
2022/02/04 12:27:29;;;;;;;21.80;15.00;;;;;;;;;;6186660;23;20009;-87
2022/02/04 12:29:56;;;;;;;18.30;15.15;;;;;;;;;;6185560;23;20020;-87
2022/02/04 12:32:21;;;;;;;22.13;15.05;;;;;;;;;;6177380;23;20049;-82
2022/02/04 12:34:48;;;;;;;20.98;14.27;;;;;;;;;;6156566;23;20005;-82
2022/02/04 12:37:19;;;;;;;19.17;14.95;;;;;;;;;;6156630;23;20013;-82
2022/02/04 12:39:44;;;;;;;18.33;13.98;;;;;;;;;;6156748;23;20032;-83
2022/02/04 12:42:13;;;;;;;17.65;13.60;;;;;;;;;;6156675;23;20006;-83
2022/02/04 12:44:41;;;;;;;17.50;14.52;;;;;;;;;;6156627;23;20005;-82
2022/02/04 16:42:36;;;;;;;57.65;36.70;;;;;;;;;;6194754;23;20017;-83
2022/02/04 16:45:02;;;;;;;43.30;29.70;;;;;;;;;;6186641;23;20035;-83
2022/02/04 16:47:27;;;;;;;36.70;21.98;;;;;;;;;;6186462;23;20009;-84
2022/02/04 16:49:53;;;;;;;28.60;19.70;;;;;;;;;;6186430;23;20001;-84
2022/02/04 16:52:18;;;;;;;29.77;19.02;;;;;;;;;;6186446;23;20005;-83
2022/02/04 16:54:44;;;;;;;28.25;17.48;;;;;;;;;;6186557;23;20470;-84
2022/02/04 16:57:09;;;;;;;27.60;17.55;;;;;;;;;;6186290;23;20011;-84
2022/02/04 16:59:34;;;;;;;32.28;20.83;;;;;;;;;;6186115;23;20416;-84
2022/02/04 17:02:01;;;;;;;33.85;20.80;;;;;;;;;;6184733;23;20031;-84
2022/02/04 17:04:26;;;;;;;29.52;20.05;;;;;;;;;;6160121;23;20020;-86
2022/02/04 17:06:59;;;;;;;32.28;19.90;;;;;;;;;;6186469;23;20309;-83
2022/02/04 17:09:33;;;;;;;33.85;19.90;;;;;;;;;;6185870;23;20416;-84
2022/02/04 17:12:03;;;;;;;30.38;19.45;;;;;;;;;;6186302;23;20011;-84
2022/02/04 17:14:30;;;;;;;26.45;17.83;;;;;;;;;;6186182;23;20332;-84
2022/02/04 17:16:56;;;;;;;28.75;18.92;;;;;;;;;;6186099;23;20001;-85
2022/02/04 17:19:26;;;;;;;29.42;20.92;;;;;;;;;;6185715;23;20024;-85
2022/02/04 17:21:58;;;;;;;29.98;19.55;;;;;;;;;;6186051;23;20032;-85
2022/02/04 17:24:24;;;;;;;32.33;21.98;;;;;;;;;;6186080;23;20008;-84
2022/02/04 17:26:49;;;;;;;30.92;20.85;;;;;;;;;;6185984;23;20324;-85
2022/02/04 17:29:14;;;;;;;28.27;18.73;;;;;;;;;;6186352;23;20443;-85
2022/02/04 17:31:40;;;;;;;29.55;19.92;;;;;;;;;;6185181;23;20151;-84
2022/02/04 17:34:06;;;;;;;35.83;21.27;;;;;;;;;;6186133;23;20005;-84
2022/02/04 17:36:37;;;;;;;32.90;21.10;;;;;;;;;;6185831;23;20309;-84
2022/02/04 17:39:16;;;;;;;33.13;20.17;;;;;;;;;;6185833;23;20088;-85
2022/02/04 17:41:42;;;;;;;31.05;20.20;;;;;;;;;;6185194;23;20005;-85
2022/02/04 17:44:08;;;;;;;35.50;21.02;;;;;;;;;;6186136;23;20039;-86
2022/02/04 17:46:34;;;;;;;32.75;21.73;;;;;;;;;;6183955;23;20476;-85
2022/02/04 17:49:10;;;;;;;34.58;22.10;;;;;;;;;;6185778;23;20005;-86
2022/02/04 17:54:47;;;;;;;33.45;20.52;;;;;;;;;;6192655;23;20463;-86
2022/02/04 17:57:35;;;;;;;33.28;21.50;;;;;;;;;;6185862;23;20008;-85
2022/02/04 18:06:07;;;;;;;34.10;21.33;;;;;;;;;;6142361;23;20009;-87
2022/02/04 18:08:42;;;;;;;35.60;22.02;;;;;;;;;;6188883;23;20001;-86
2022/02/04 18:11:27;;;;;;;36.10;22.20;;;;;;;;;;6190119;23;20036;-87
2022/02/04 18:13:58;;;;;;;36.03;22.45;;;;;;;;;;6187451;23;20368;-93
2022/02/04 18:16:23;;;;;;;31.13;20.92;;;;;;;;;;6187794;23;20012;-87
2022/02/04 18:18:49;;;;;;;31.45;21.05;;;;;;;;;;6185883;23;20329;-88
2022/02/04 18:21:15;;;;;;;31.77;21.52;;;;;;;;;;6186150;23;20020;-88
2022/02/04 18:23:41;;;;;;;34.25;22.05;;;;;;;;;;6187516;23;20008;-86
2022/02/04 18:26:08;;;;;;;36.00;22.38;;;;;;;;;;6187557;23;20005;-86
2022/02/04 18:28:34;;;;;;;31.75;21.75;;;;;;;;;;6185837;23;20009;-86
2022/02/04 18:31:00;;;;;;;32.90;22.23;;;;;;;;;;6185917;23;20017;-86
2022/02/04 18:33:25;;;;;;;35.42;22.08;;;;;;;;;;6185966;23;20378;-86
2022/02/04 18:35:58;;;;;;;33.50;22.15;;;;;;;;;;6187289;23;20005;-87
2022/02/04 18:38:33;;;;;;;32.05;20.77;;;;;;;;;;6187170;23;20436;-86
2022/02/04 18:43:41;;;;;;;33.75;21.10;;;;;;;;;;6188769;23;20017;-86
2022/02/04 18:49:02;;;;;;;30.67;21.55;;;;;;;;;;6193269;23;20013;-87
2022/02/04 18:54:11;;;;;;;35.80;21.58;;;;;;;;;;6193544;23;20005;-85
2022/02/04 18:59:24;;;;;;;29.45;18.60;;;;;;;;;;6190516;23;20009;-86
2022/02/04 19:01:50;;;;;;;27.23;18.33;;;;;;;;;;6185586;23;20310;-89
2022/02/04 19:04:19;;;;;;;30.00;19.55;;;;;;;;;;6185591;23;20004;-87
2022/02/04 19:06:51;;;;;;;35.38;21.63;;;;;;;;;;6186871;23;20009;-86
2022/02/04 19:09:17;;;;;;;30.42;19.52;;;;;;;;;;6186979;23;20033;-86
2022/02/04 19:11:48;;;;;;;27.55;17.92;;;;;;;;;;6187192;23;20048;-85
2022/02/04 19:24:42;;;;;;;36.30;23.95;;;;;;;;;;6196644;23;20328;-85
2022/02/04 19:27:07;;;;;;;35.40;21.63;;;;;;;;;;6185279;23;20020;-85
2022/02/04 19:29:34;;;;;;;38.78;21.75;;;;;;;;;;6186792;23;20005;-84
2022/02/04 19:32:03;;;;;;;38.00;21.55;;;;;;;;;;6186829;23;20037;-89
2022/02/04 19:34:29;;;;;;;38.83;23.73;;;;;;;;;;6187103;23;20013;-89
2022/02/04 19:36:56;;;;;;;38.40;24.35;;;;;;;;;;6187493;23;20013;-91
2022/02/04 19:39:23;;;;;;;35.40;21.45;;;;;;;;;;6188116;23;20077;-93
2022/02/04 19:42:03;;;;;;;33.90;21.27;;;;;;;;;;6187921;23;20437;-90
2022/02/04 19:44:31;;;;;;;31.67;20.95;;;;;;;;;;6185606;23;20429;-89
2022/02/04 19:47:02;;;;;;;66.68;33.45;;;;;;;;;;6186679;23;20100;-89
2022/02/04 19:49:37;;;;;;;40.40;24.15;;;;;;;;;;6186001;23;20332;-89
2022/02/04 19:55:13;;;;;;;35.95;22.85;;;;;;;;;;6186480;23;20084;-88
2022/02/04 20:17:12;;;;;;;52.70;31.52;;;;;;;;;;6186772;23;20071;-88
2022/02/04 20:25:01;;;;;;;37.78;24.38;;;;;;;;;;6186731;23;20102;-86
2022/02/04 20:27:27;;;;;;;33.72;22.02;;;;;;;;;;6184530;23;20013;-87
2022/02/04 20:29:53;;;;;;;137.38;62.03;;;;;;;;;;6186646;23;20004;-87
2022/02/04 20:32:19;;;;;;;47.60;28.17;;;;;;;;;;6186749;23;20004;-88
2022/02/04 20:34:45;;;;;;;38.97;24.83;;;;;;;;;;6184961;23;20005;-89
2022/02/04 20:37:11;;;;;;;38.85;23.88;;;;;;;;;;6185178;23;20421;-87
2022/02/04 20:39:45;;;;;;;37.25;22.70;;;;;;;;;;6187280;23;20008;-87
2022/02/04 20:42:11;;;;;;;39.20;23.92;;;;;;;;;;6184765;23;20340;-88
2022/02/04 20:44:37;;;;;;;29.95;20.75;;;;;;;;;;6185940;23;20080;-88
2022/02/04 20:47:03;;;;;;;31.40;21.60;;;;;;;;;;6185936;23;20031;-87
2022/02/04 20:49:29;;;;;;;36.47;21.98;;;;;;;;;;6186225;23;20020;-85
2022/02/04 20:51:54;;;;;;;33.58;21.65;;;;;;;;;;6186266;23;20416;-87
2022/02/04 20:54:20;;;;;;;35.78;23.33;;;;;;;;;;6184545;23;20012;-87
2022/02/04 20:56:45;;;;;;;34.42;21.98;;;;;;;;;;6185990;23;20083;-87
2022/02/04 20:59:10;;;;;;;36.47;23.23;;;;;;;;;;6186070;23;20376;-87
2022/02/04 21:01:36;;;;;;;31.88;21.73;;;;;;;;;;6184391;23;20028;-86
2022/02/04 21:04:06;;;;;;;36.63;21.58;;;;;;;;;;6185815;23;20000;-86
2022/02/04 21:06:45;;;;;;;33.67;20.63;;;;;;;;;;6184384;23;20005;-87
2022/02/04 21:14:35;;;;;;;33.53;23.33;;;;;;;;;;6185955;23;20040;-87
2022/02/04 21:17:00;;;;;;;33.88;22.92;;;;;;;;;;6184748;23;20001;-87
2022/02/04 21:19:26;;;;;;;34.75;24.08;;;;;;;;;;6184326;23;20443;-87
2022/02/04 21:21:51;;;;;;;37.88;25.80;;;;;;;;;;6185851;23;20380;-87
2022/02/04 21:24:17;;;;;;;35.42;24.48;;;;;;;;;;6186000;23;20005;-87
2022/02/04 21:26:44;;;;;;;44.00;26.27;;;;;;;;;;6185744;23;20013;-88
2022/02/04 21:29:09;;;;;;;38.70;24.58;;;;;;;;;;6184187;23;20337;-87
2022/02/04 21:31:37;;;;;;;38.38;23.75;;;;;;;;;;6185787;23;20012;-87
2022/02/04 21:36:56;;;;;;;36.08;24.25;;;;;;;;;;6185873;23;20091;-87
2022/02/04 21:37:00;;;;;;;33.25;22.00;;;;;;;;;;6185547;23;20005;-86
2022/02/04 21:39:25;;;;;;;32.30;21.58;;;;;;;;;;6183965;23;20005;-86
2022/02/04 21:41:51;;;;;;;35.92;23.15;;;;;;;;;;6184143;23;20021;-87
2022/02/04 21:44:16;;;;;;;37.63;24.08;;;;;;;;;;6184150;23;20012;-87
2022/02/04 21:46:43;;;;;;;33.15;22.55;;;;;;;;;;6184122;23;20012;-88
2022/02/04 21:49:08;;;;;;;34.88;21.88;;;;;;;;;;6185682;23;19997;-88
2022/02/04 21:51:35;;;;;;;35.35;21.80;;;;;;;;;;6184461;23;20433;-87
2022/02/04 21:54:01;;;;;;;33.63;20.85;;;;;;;;;;6184369;23;20012;-87
2022/02/04 21:56:26;;;;;;;30.08;19.63;;;;;;;;;;6186233;23;20024;-87
2022/02/04 21:58:52;;;;;;;29.05;20.13;;;;;;;;;;6185817;23;20097;-87
2022/02/04 22:01:18;;;;;;;35.88;20.75;;;;;;;;;;6209262;23;20009;-87
2022/02/04 22:03:44;;;;;;;31.20;20.92;;;;;;;;;;6184260;23;20443;-87
2022/02/04 22:06:10;;;;;;;35.00;21.67;;;;;;;;;;6184608;23;20005;-88
2022/02/04 22:12:20;;;;;;;30.40;20.50;;;;;;;;;;6195916;23;20325;-88
2022/02/04 22:24:31;;;;;;;33.38;19.88;;;;;;;;;;6185773;23;20384;-88
2022/02/04 22:26:57;;;;;;;32.45;20.05;;;;;;;;;;6185756;23;20005;-89
2022/02/04 22:29:25;;;;;;;30.38;21.70;;;;;;;;;;6185800;23;20027;-88
2022/02/04 22:31:50;;;;;;;33.97;21.30;;;;;;;;;;6184167;23;20013;-88
2022/02/04 22:40:02;;;;;;;36.35;20.95;;;;;;;;;;6188180;23;20009;-88
2022/02/04 22:42:39;;;;;;;29.98;20.27;;;;;;;;;;6185276;23;20071;-88
2022/02/04 22:50:27;;;;;;;32.78;21.52;;;;;;;;;;6140267;23;20005;-88
2022/02/04 22:55:36;;;;;;;37.60;23.98;;;;;;;;;;6197796;23;20001;-89
2022/02/04 22:58:07;;;;;;;42.88;24.00;;;;;;;;;;6185784;23;20009;-88
2022/02/04 23:00:46;;;;;;;35.67;22.25;;;;;;;;;;6185590;23;20001;-88
2022/02/04 23:03:24;;;;;;;40.38;24.92;;;;;;;;;;6185760;23;20377;-88
2022/02/04 23:05:49;;;;;;;34.22;21.75;;;;;;;;;;6185789;23;20003;-88
2022/02/04 23:08:20;;;;;;;35.08;22.70;;;;;;;;;;6187179;23;20013;-88
2022/02/04 23:10:46;;;;;;;40.90;25.20;;;;;;;;;;6185510;23;20036;-87
2022/02/04 23:16:14;;;;;;;36.75;23.67;;;;;;;;;;6082630;23;20003;-88
2022/02/04 23:18:45;;;;;;;38.03;24.33;;;;;;;;;;6187072;23;20001;-87
2022/02/04 23:21:16;;;;;;;40.90;25.70;;;;;;;;;;6185693;23;20012;-87
2022/02/04 23:23:43;;;;;;;37.28;23.50;;;;;;;;;;6187379;23;20432;-87
2022/02/04 23:26:14;;;;;;;36.25;23.27;;;;;;;;;;6187291;23;20425;-88
2022/02/04 23:31:58;;;;;;;37.53;23.80;;;;;;;;;;6196757;23;20013;-88
2022/02/04 23:45:15;;;;;;;36.08;22.05;;;;;;;;;;6187385;23;20092;-87
2022/02/04 23:50:24;;;;;;;39.13;23.60;;;;;;;;;;6160855;23;20001;-87
2022/02/04 23:52:49;;;;;;;39.38;23.05;;;;;;;;;;6185572;23;20009;-87
2022/02/04 23:55:16;;;;;;;38.00;23.40;;;;;;;;;;6187098;23;20016;-88
2022/02/04 23:57:47;;;;;;;35.33;22.90;;;;;;;;;;6187051;23;20056;-87
